createdAt,value
2023-02-09T00:01:56.379Z,37.53
2023-02-09T00:04:42.292Z,37.53
2023-02-09T00:07:27.665Z,39.10
2023-02-09T00:10:13.373Z,39.50
2023-02-09T00:13:17.280Z,41.60
2023-02-09T00:16:03.641Z,37.67
2023-02-09T00:18:49.149Z,35.70
2023-02-09T00:21:34.897Z,38.53
2023-02-09T00:24:20.113Z,37.83
2023-02-09T00:27:05.541Z,37.73
2023-02-09T00:29:51.206Z,38.23
2023-02-09T00:32:36.762Z,38.27
2023-02-09T00:35:22.242Z,43.50
2023-02-09T00:38:08.022Z,37.00
2023-02-09T00:40:53.822Z,40.73
2023-02-09T00:43:40.007Z,39.27
2023-02-09T00:46:25.173Z,38.67
2023-02-09T00:49:10.699Z,41.33
2023-02-09T00:51:56.432Z,38.83
2023-02-09T00:54:41.787Z,43.40
2023-02-09T00:57:27.376Z,36.53
2023-02-09T01:00:14.428Z,41.47
2023-02-09T01:02:59.895Z,38.23
2023-02-09T01:05:45.219Z,38.77
2023-02-09T01:08:30.744Z,37.07
2023-02-09T01:11:16.670Z,37.97
2023-02-09T01:14:04.440Z,34.67
2023-02-09T01:16:49.780Z,35.83
2023-02-09T01:19:36.044Z,34.43
2023-02-09T01:22:21.353Z,34.80
2023-02-09T01:25:08.089Z,41.30
2023-02-09T01:27:53.679Z,39.63
2023-02-09T01:30:39.427Z,39.23
2023-02-09T01:33:24.929Z,35.83
2023-02-09T01:36:10.831Z,38.33
2023-02-09T01:38:58.611Z,44.40
2023-02-09T01:41:44.124Z,40.40
2023-02-09T01:44:29.330Z,42.83
2023-02-09T01:47:16.666Z,37.70
2023-02-09T01:50:03.272Z,37.37
2023-02-09T01:52:49.283Z,41.30
2023-02-09T01:55:39.135Z,37.93
2023-02-09T01:58:26.183Z,40.47
2023-02-09T02:01:12.220Z,41.33
2023-02-09T02:03:57.684Z,44.17
2023-02-09T02:06:43.048Z,39.83
2023-02-09T02:09:29.413Z,38.70
2023-02-09T02:12:15.508Z,42.37
2023-02-09T02:15:01.076Z,43.70
2023-02-09T02:18:10.129Z,41.63
2023-02-09T02:21:18.455Z,41.10
2023-02-09T02:24:12.691Z,41.03
2023-02-09T02:27:22.773Z,39.03
2023-02-09T02:30:36.052Z,40.57
2023-02-09T02:33:41.352Z,49.03
2023-02-09T02:36:46.755Z,47.17
2023-02-09T02:40:19.010Z,42.17
2023-02-09T02:43:49.744Z,38.17
2023-02-09T02:46:46.249Z,43.13
2023-02-09T02:49:39.721Z,39.60
2023-02-09T02:52:25.313Z,43.63
2023-02-09T02:55:15.583Z,36.43
2023-02-09T02:58:06.259Z,38.17
2023-02-09T03:00:57.325Z,41.60
2023-02-09T03:03:44.890Z,41.33
2023-02-09T03:06:32.906Z,41.20
2023-02-09T03:09:18.772Z,39.97
2023-02-09T03:12:25.635Z,41.73
2023-02-09T03:15:28.202Z,42.13
2023-02-09T03:18:51.100Z,41.33
2023-02-09T03:21:43.676Z,38.90
2023-02-09T03:24:52.310Z,39.30
2023-02-09T03:28:07.592Z,38.10
2023-02-09T03:33:39.952Z,40.80
2023-02-09T03:36:31.479Z,41.53
2023-02-09T03:39:16.760Z,42.93
2023-02-09T03:42:02.405Z,37.90
2023-02-09T03:44:47.785Z,40.47
2023-02-09T03:47:33.210Z,39.00
2023-02-09T03:50:18.765Z,39.70
2023-02-09T03:53:07.605Z,38.67
2023-02-09T03:55:52.791Z,44.73
2023-02-09T03:58:38.311Z,41.30
2023-02-09T04:01:23.934Z,39.33
2023-02-09T04:04:09.353Z,39.03
2023-02-09T04:06:56.129Z,38.63
2023-02-09T04:09:41.710Z,42.23
2023-02-09T04:12:27.314Z,39.50
2023-02-09T04:15:12.903Z,36.97
2023-02-09T04:17:58.377Z,38.73
2023-02-09T04:20:44.413Z,37.83
2023-02-09T04:23:29.975Z,43.90
2023-02-09T04:26:15.732Z,42.50
2023-02-09T04:29:01.233Z,41.93
2023-02-09T04:31:46.900Z,38.47
2023-02-09T04:34:32.285Z,41.20
2023-02-09T04:37:17.616Z,36.33
2023-02-09T04:40:03.233Z,43.07
2023-02-09T04:42:48.524Z,39.30
2023-02-09T04:45:34.115Z,34.20
2023-02-09T04:48:21.768Z,36.60
2023-02-09T04:51:07.145Z,41.13
2023-02-09T04:53:52.646Z,37.27
2023-02-09T04:56:38.882Z,39.17
2023-02-09T04:59:36.558Z,42.00
2023-02-09T05:02:22.071Z,37.53
2023-02-09T05:05:07.405Z,42.53
2023-02-09T05:07:52.713Z,38.10
2023-02-09T05:10:38.482Z,39.63
2023-02-09T05:13:25.306Z,38.30
2023-02-09T05:16:14.994Z,43.47
2023-02-09T05:19:00.570Z,41.40
2023-02-09T05:21:46.301Z,40.37
2023-02-09T05:24:31.867Z,34.67
2023-02-09T05:27:17.444Z,35.57
2023-02-09T05:30:03.100Z,38.47
2023-02-09T05:32:48.542Z,39.93
2023-02-09T05:35:34.014Z,36.63
2023-02-09T05:38:19.700Z,38.93
2023-02-09T05:41:11.299Z,39.07
2023-02-09T05:43:56.839Z,39.10
2023-02-09T05:46:42.392Z,37.00
2023-02-09T05:49:27.895Z,39.60
2023-02-09T05:52:14.256Z,40.60
2023-02-09T05:54:59.620Z,35.97
2023-02-09T05:57:45.202Z,38.37
2023-02-09T06:00:30.720Z,37.70
2023-02-09T06:03:16.163Z,38.83
2023-02-09T06:06:01.481Z,38.43
2023-02-09T06:08:46.919Z,35.07
2023-02-09T06:11:32.521Z,33.33
2023-02-09T06:14:17.853Z,35.73
2023-02-09T06:17:03.496Z,36.27
2023-02-09T06:19:48.972Z,37.77
2023-02-09T06:22:34.420Z,32.17
2023-02-09T06:25:19.767Z,33.13
2023-02-09T06:28:05.509Z,36.53
2023-02-09T06:30:52.710Z,36.23
2023-02-09T06:33:39.271Z,36.37
2023-02-09T06:36:24.905Z,37.63
2023-02-09T06:39:11.186Z,36.17
2023-02-09T06:41:56.573Z,38.20
2023-02-09T06:44:41.805Z,32.37
2023-02-09T06:47:27.273Z,33.70
2023-02-09T06:50:15.295Z,33.37
2023-02-09T06:53:01.687Z,37.53
2023-02-09T06:55:46.939Z,35.43
2023-02-09T06:58:33.017Z,31.23
2023-02-09T07:01:18.465Z,34.43
2023-02-09T07:04:04.014Z,33.40
2023-02-09T07:06:49.684Z,33.93
2023-02-09T07:09:34.932Z,41.27
2023-02-09T07:12:20.366Z,40.20
2023-02-09T07:15:07.053Z,39.20
2023-02-09T07:17:52.738Z,36.90
2023-02-09T07:20:38.277Z,33.93
2023-02-09T07:23:24.465Z,37.30
2023-02-09T07:26:15.645Z,33.60
2023-02-09T07:29:01.479Z,33.33
2023-02-09T07:31:47.329Z,32.53
2023-02-09T07:34:34.701Z,38.27
2023-02-09T07:37:20.300Z,40.10
2023-02-09T07:40:06.506Z,39.13
2023-02-09T07:42:52.657Z,36.77
2023-02-09T07:45:37.740Z,35.37
2023-02-09T07:48:25.449Z,32.93
2023-02-09T07:51:15.451Z,45.57
2023-02-09T07:54:00.804Z,35.33
2023-02-09T07:56:46.072Z,35.90
2023-02-09T07:59:31.659Z,37.20
2023-02-09T08:02:28.201Z,33.47
2023-02-09T08:05:37.164Z,35.13
2023-02-09T08:08:22.772Z,37.80
2023-02-09T08:11:08.128Z,31.33
2023-02-09T08:13:55.670Z,30.07
2023-02-09T08:16:41.575Z,32.40
2023-02-09T08:19:26.831Z,34.70
2023-02-09T08:22:12.608Z,38.07
2023-02-09T08:24:59.269Z,32.17
2023-02-09T08:27:46.128Z,27.43
2023-02-09T08:30:33.100Z,28.47
2023-02-09T08:33:18.898Z,32.63
2023-02-09T08:36:04.586Z,35.97
2023-02-09T08:38:49.925Z,30.63
2023-02-09T08:41:35.446Z,31.10
2023-02-09T08:44:20.839Z,37.50
2023-02-09T08:47:06.233Z,29.93
2023-02-09T08:49:52.011Z,31.47
2023-02-09T08:52:37.974Z,31.10
2023-02-09T08:55:24.220Z,29.73
2023-02-09T08:58:09.675Z,32.27
2023-02-09T09:01:00.031Z,30.07
2023-02-09T09:03:45.507Z,28.63
2023-02-09T09:06:30.719Z,30.80
2023-02-09T09:09:16.232Z,29.23
2023-02-09T09:12:01.826Z,26.87
2023-02-09T09:14:47.481Z,30.50
2023-02-09T09:17:33.038Z,28.10
2023-02-09T09:20:18.964Z,31.47
2023-02-09T09:23:04.220Z,28.03
2023-02-09T09:25:50.323Z,30.07
2023-02-09T09:28:36.293Z,25.87
2023-02-09T09:31:22.071Z,32.70
2023-02-09T09:34:07.809Z,29.20
2023-02-09T09:36:53.285Z,29.37
2023-02-09T09:39:38.747Z,27.77
2023-02-09T09:42:25.550Z,26.10
2023-02-09T09:45:19.172Z,24.67
2023-02-09T09:48:06.024Z,28.70
2023-02-09T09:50:54.179Z,25.47
2023-02-09T09:53:43.461Z,26.63
2023-02-09T09:56:31.833Z,28.40
2023-02-09T09:59:32.374Z,22.30
2023-02-09T10:02:28.801Z,25.30
2023-02-09T10:05:17.007Z,20.03
2023-02-09T10:08:15.019Z,21.37
2023-02-09T10:11:08.931Z,21.20
2023-02-09T10:13:56.690Z,23.20
2023-02-09T10:16:44.572Z,21.30
2023-02-09T10:19:30.470Z,22.07
2023-02-09T10:22:20.777Z,25.47
2023-02-09T10:25:52.397Z,21.47
2023-02-09T10:28:44.154Z,21.73
2023-02-09T10:31:38.444Z,22.23
2023-02-09T10:34:45.359Z,24.52
2023-02-09T10:37:34.295Z,23.37
2023-02-09T10:40:38.608Z,25.40
2023-02-09T10:43:28.339Z,22.20
2023-02-09T10:46:20.843Z,25.87
2023-02-09T10:49:35.287Z,28.60
2023-02-09T10:52:23.136Z,26.80
2023-02-09T10:55:26.572Z,27.30
2023-02-09T10:58:16.896Z,29.20
2023-02-09T11:01:12.534Z,29.50
2023-02-09T11:04:21.475Z,26.83
2023-02-09T11:07:18.298Z,28.67
2023-02-09T11:10:12.772Z,29.77
2023-02-09T11:13:00.060Z,25.63
2023-02-09T11:16:03.908Z,25.30
2023-02-09T11:19:10.397Z,24.30
2023-02-09T11:22:02.769Z,25.60
2023-02-09T11:25:00.405Z,24.80
2023-02-09T11:28:04.679Z,25.40
2023-02-09T11:31:16.387Z,25.13
2023-02-09T11:34:13.949Z,26.97
2023-02-09T11:37:17.776Z,23.60
2023-02-09T11:40:17.381Z,29.27
2023-02-09T11:43:14.633Z,24.13
2023-02-09T11:46:10.880Z,24.87
2023-02-09T11:49:06.674Z,26.07
2023-02-09T11:51:53.802Z,22.63
2023-02-09T11:54:39.836Z,25.97
2023-02-09T11:57:42.980Z,24.17
2023-02-09T12:00:52.413Z,24.37
2023-02-09T12:03:47.785Z,28.20
2023-02-09T12:06:44.461Z,23.20
2023-02-09T12:09:52.179Z,22.50
2023-02-09T12:12:48.731Z,22.67
2023-02-09T12:15:54.322Z,25.73
2023-02-09T12:18:41.377Z,25.90
2023-02-09T12:21:38.239Z,24.93
2023-02-09T12:24:33.332Z,23.20
2023-02-09T12:27:28.050Z,21.17
2023-02-09T12:30:41.870Z,22.17
2023-02-09T12:33:32.198Z,22.40
2023-02-09T12:36:26.303Z,21.00
2023-02-09T12:39:24.294Z,22.67
2023-02-09T12:42:09.930Z,27.40
2023-02-09T12:44:57.774Z,21.45
2023-02-09T12:47:46.090Z,17.03
2023-02-09T12:50:43.010Z,19.80
2023-02-09T12:53:32.388Z,19.77
2023-02-09T12:56:17.622Z,18.43
2023-02-09T12:59:15.426Z,18.00
2023-02-09T13:02:07.228Z,16.75
2023-02-09T13:05:11.457Z,21.38
2023-02-09T13:08:15.983Z,20.70
2023-02-09T13:11:25.848Z,20.75
2023-02-09T13:14:14.666Z,18.58
2023-02-09T13:17:09.326Z,22.20
2023-02-09T13:20:06.971Z,22.73
2023-02-09T13:23:06.873Z,22.17
2023-02-09T13:26:09.158Z,18.73
2023-02-09T13:29:21.439Z,23.70
2023-02-09T13:32:16.537Z,24.03
2023-02-09T13:37:55.415Z,22.70
2023-02-09T13:40:47.137Z,22.65
2023-02-09T13:43:36.932Z,24.13
2023-02-09T13:46:29.223Z,24.45
2023-02-09T13:49:20.154Z,21.42
2023-02-09T13:52:20.128Z,23.75
2023-02-09T13:55:32.134Z,22.23
2023-02-09T13:58:22.222Z,18.33
2023-02-09T14:01:13.928Z,22.30
2023-02-09T14:04:33.008Z,22.83
2023-02-09T14:07:21.223Z,22.60
2023-02-09T14:10:14.658Z,22.45
2023-02-09T14:13:22.191Z,20.55
2023-02-09T14:16:07.934Z,22.02
2023-02-09T14:19:02.468Z,21.30
2023-02-09T14:21:47.773Z,22.25
2023-02-09T14:24:44.382Z,19.63
2023-02-09T14:27:33.018Z,20.63
2023-02-09T14:30:22.750Z,19.15
2023-02-09T14:33:24.711Z,19.65
2023-02-09T14:36:34.062Z,23.48
2023-02-09T14:39:22.725Z,22.70
2023-02-09T14:42:08.150Z,19.50
2023-02-09T14:45:19.023Z,20.45
2023-02-09T14:48:25.751Z,22.65
2023-02-09T14:51:14.613Z,19.00
2023-02-09T14:54:00.976Z,19.63
2023-02-09T14:56:46.618Z,18.83
2023-02-09T14:59:31.909Z,19.30
2023-02-09T15:02:21.298Z,18.15
2023-02-09T15:05:07.187Z,22.35
2023-02-09T15:08:03.582Z,20.75
2023-02-09T15:11:01.636Z,20.35
2023-02-09T15:13:47.835Z,21.27
2023-02-09T15:16:33.413Z,19.77
2023-02-09T15:19:21.792Z,20.02
2023-02-09T15:22:08.642Z,22.25
2023-02-09T15:24:54.699Z,21.33
2023-02-09T15:27:51.177Z,23.45
2023-02-09T15:30:37.278Z,24.52
2023-02-09T15:33:22.432Z,26.23
2023-02-09T15:36:11.061Z,26.45
2023-02-09T15:38:56.468Z,26.25
2023-02-09T15:42:01.497Z,24.25
2023-02-09T15:45:07.360Z,29.00
2023-02-09T15:47:56.521Z,27.90
2023-02-09T15:50:45.671Z,28.77
2023-02-09T15:53:32.082Z,26.77
2023-02-09T15:56:17.422Z,28.33
2023-02-09T15:59:04.647Z,28.57
2023-02-09T16:01:51.395Z,25.63
2023-02-09T16:04:36.630Z,29.97
2023-02-09T16:07:26.116Z,27.83
2023-02-09T16:10:15.788Z,30.30
2023-02-09T16:13:01.221Z,29.80
2023-02-09T16:15:47.715Z,30.50
2023-02-09T16:18:33.209Z,33.80
2023-02-09T16:21:33.534Z,29.60
2023-02-09T16:24:39.875Z,33.50
2023-02-09T16:27:29.105Z,33.10
2023-02-09T16:30:25.883Z,28.93
2023-02-09T16:33:11.269Z,29.23
2023-02-09T16:36:00.621Z,31.33
2023-02-09T16:38:45.939Z,29.10
2023-02-09T16:41:49.626Z,28.80
2023-02-09T16:44:36.559Z,31.63
2023-02-09T16:47:26.222Z,29.77
2023-02-09T16:50:20.378Z,29.77
2023-02-09T16:53:16.698Z,29.77
2023-02-09T16:56:04.927Z,29.10
2023-02-09T16:58:50.503Z,29.30
2023-02-09T17:01:36.031Z,29.53
2023-02-09T17:04:21.658Z,28.37
2023-02-09T17:07:09.591Z,27.17
2023-02-09T17:09:57.329Z,23.30
2023-02-09T17:12:43.175Z,29.33
2023-02-09T17:15:32.183Z,32.33
2023-02-09T17:18:24.692Z,28.57
2023-02-09T17:21:16.897Z,27.23
2023-02-09T17:24:04.211Z,37.37
2023-02-09T17:26:50.037Z,32.60
2023-02-09T17:29:35.906Z,36.80
2023-02-09T17:32:21.727Z,29.37
2023-02-09T17:35:16.200Z,28.77
2023-02-09T17:38:01.380Z,26.45
2023-02-09T17:40:47.008Z,29.63
2023-02-09T17:43:32.712Z,32.20
2023-02-09T17:46:19.802Z,28.20
2023-02-09T17:49:05.593Z,28.70
2023-02-09T17:51:51.581Z,29.03
2023-02-09T17:54:37.046Z,28.77
2023-02-09T17:57:22.452Z,32.47
2023-02-09T18:00:08.581Z,30.53
2023-02-09T18:02:54.401Z,28.80
2023-02-09T18:05:41.298Z,27.27
2023-02-09T18:08:27.416Z,27.90
2023-02-09T18:11:16.713Z,33.53
2023-02-09T18:14:01.980Z,35.87
2023-02-09T18:16:48.222Z,34.37
2023-02-09T18:19:33.735Z,33.40
2023-02-09T18:22:19.943Z,34.20
2023-02-09T18:25:05.345Z,31.87
2023-02-09T18:27:51.657Z,36.43
2023-02-09T18:30:39.502Z,29.73
2023-02-09T18:33:24.757Z,31.37
2023-02-09T18:36:10.381Z,29.93
2023-02-09T18:38:55.855Z,35.40
2023-02-09T18:41:41.757Z,28.93
2023-02-09T18:44:32.286Z,31.13
2023-02-09T18:47:17.880Z,31.97
2023-02-09T18:50:04.779Z,30.10
2023-02-09T18:52:52.600Z,29.93
2023-02-09T18:55:38.364Z,32.90
2023-02-09T18:58:23.582Z,32.10
2023-02-09T19:01:13.327Z,32.63
2023-02-09T19:03:58.732Z,29.83
2023-02-09T19:06:44.047Z,34.13
2023-02-09T19:09:29.690Z,34.43
2023-02-09T19:12:15.277Z,34.37
2023-02-09T19:15:00.708Z,31.10
2023-02-09T19:17:46.292Z,28.87
2023-02-09T19:20:33.973Z,36.27
2023-02-09T19:23:19.286Z,36.30
2023-02-09T19:26:05.635Z,31.77
2023-02-09T19:28:51.164Z,34.53
2023-02-09T19:31:37.150Z,33.97
2023-02-09T19:34:23.405Z,34.87
2023-02-09T19:37:10.583Z,31.17
2023-02-09T19:40:10.580Z,31.70
2023-02-09T19:42:57.105Z,34.20
2023-02-09T19:45:42.599Z,33.60
2023-02-09T19:48:28.195Z,34.23
2023-02-09T19:51:16.316Z,34.17
2023-02-09T19:54:01.833Z,39.83
2023-02-09T19:56:47.359Z,36.47
2023-02-09T19:59:32.957Z,29.37
2023-02-09T20:02:18.450Z,33.27
2023-02-09T20:05:04.508Z,31.13
2023-02-09T20:07:51.092Z,29.93
2023-02-09T20:10:39.386Z,32.87
2023-02-09T20:13:25.026Z,30.87
2023-02-09T20:16:17.031Z,33.63
2023-02-09T20:19:02.334Z,31.10
2023-02-09T20:21:47.994Z,32.40
2023-02-09T20:24:33.623Z,34.50
2023-02-09T20:27:19.217Z,33.67
2023-02-09T20:30:07.380Z,34.47
2023-02-09T20:32:53.108Z,28.93
2023-02-09T20:35:44.573Z,32.70
2023-02-09T20:38:30.027Z,34.13
2023-02-09T20:41:17.992Z,40.00
2023-02-09T20:44:21.966Z,35.47
2023-02-09T20:47:07.228Z,31.07
2023-02-09T20:49:56.010Z,35.33
2023-02-09T20:52:41.495Z,31.60
2023-02-09T20:55:27.473Z,29.80
2023-02-09T20:58:13.836Z,34.73
2023-02-09T21:00:59.142Z,30.70
2023-02-09T21:03:44.781Z,33.30
2023-02-09T21:06:30.143Z,30.97
2023-02-09T21:09:16.019Z,36.17
2023-02-09T21:12:01.634Z,35.70
2023-02-09T21:14:47.793Z,30.40
2023-02-09T21:17:33.326Z,34.33
2023-02-09T21:20:18.982Z,37.73
2023-02-09T21:23:04.359Z,29.47
2023-02-09T21:25:49.732Z,34.27
2023-02-09T21:28:36.539Z,32.40
2023-02-09T21:31:24.218Z,31.03
2023-02-09T21:34:14.031Z,28.13
2023-02-09T21:36:59.439Z,31.70
2023-02-09T21:39:44.657Z,32.60
2023-02-09T21:42:31.529Z,31.50
2023-02-09T21:45:17.270Z,34.17
2023-02-09T21:48:02.514Z,35.10
2023-02-09T21:50:47.858Z,31.53
2023-02-09T21:53:33.164Z,31.23
2023-02-09T21:56:19.157Z,31.47
2023-02-09T21:59:04.588Z,34.03
2023-02-09T22:01:49.933Z,35.13
2023-02-09T22:04:38.026Z,26.40
2023-02-09T22:07:23.455Z,30.20
2023-02-09T22:10:09.129Z,28.43
2023-02-09T22:12:56.744Z,26.13
2023-02-09T22:15:43.810Z,35.27
2023-02-09T22:18:29.127Z,27.60
2023-02-09T22:21:14.451Z,26.67
2023-02-09T22:23:59.672Z,27.83
2023-02-09T22:26:46.708Z,26.20
2023-02-09T22:29:33.365Z,28.23
2023-02-09T22:32:20.418Z,25.40
2023-02-09T22:35:06.455Z,28.67
2023-02-09T22:37:51.608Z,27.20
2023-02-09T22:40:37.267Z,27.70
2023-02-09T22:43:25.152Z,29.30
2023-02-09T22:46:10.428Z,30.43
2023-02-09T22:48:58.166Z,26.30
2023-02-09T22:51:45.452Z,24.57
2023-02-09T22:54:30.844Z,31.77
2023-02-09T22:57:16.160Z,30.43
2023-02-09T23:00:01.942Z,25.23
2023-02-09T23:02:47.299Z,29.33
2023-02-09T23:05:36.369Z,28.17
2023-02-09T23:08:23.085Z,29.97
2023-02-09T23:11:14.989Z,27.27
2023-02-09T23:14:10.662Z,27.77
2023-02-09T23:16:56.590Z,26.30
2023-02-09T23:19:41.963Z,26.50
2023-02-09T23:22:27.294Z,32.03
2023-02-09T23:25:12.901Z,26.90
2023-02-09T23:27:58.235Z,28.77
2023-02-09T23:30:45.277Z,25.23
2023-02-09T23:33:30.762Z,26.63
2023-02-09T23:36:26.880Z,23.03
2023-02-09T23:39:16.464Z,24.00
2023-02-09T23:42:01.981Z,20.57
2023-02-09T23:44:47.651Z,23.57
2023-02-09T23:47:33.180Z,22.30
2023-02-09T23:50:18.917Z,20.90
2023-02-09T23:53:08.430Z,22.13
2023-02-09T23:55:54.170Z,20.73
2023-02-09T23:58:45.678Z,26.13
